Petrolina Ocean — 5BQR2 — position and weather

sailwx.info

Track history (hours):
 
Tides and Currents Weather Stations Pressure Air Temp Water Temp Dewpoint Dewpoint Depression Visibility Wind Speed Wind Dir Waves Ship Positions

Petrolina Ocean

Last reported at 2018-Feb-19 10:44 UTC. Time now 2018-Feb-21 01:44 UTC.
Position N 32°57' E 034°46'.

Length 113 m; draft 5.6 m.

Type: Tanker. MMSI: 212422000.

Date/timePositionNaut miles runAvg speedWind from/ knotsBaromVisibWave heightAir tempDewpointWater temp
2018-Feb-19 10:44N 32°57' E 034°46'312.0
2018-Feb-19 10:29N 32°57' E 034°49'611.8
2018-Feb-19 09:59N 32°54' E 034°55'611.4
2018-Feb-19 09:30N 32°51' E 035°01'1 0.0
2018-Feb-17 16:08N 32°51' E 034°60'3 0.9
2018-Feb-17 13:18N 32°54' E 035°01'0 0.0
2018-Feb-17 13:00N 32°54' E 035°01'0 0.1
2018-Feb-17 12:30N 32°54' E 035°01'0 0.0
2018-Feb-17 11:54N 32°54' E 035°01'0 0.0
2018-Feb-17 11:30N 32°54' E 035°01'0 0.0
2018-Feb-17 10:54N 32°54' E 035°01'0 0.0
2018-Feb-17 10:30N 32°54' E 035°01'0 0.0
2018-Feb-16 19:57N 32°53' E 035°00'0 0.0
2018-Feb-16 19:21N 32°53' E 035°00'0 0.0
2018-Feb-16 18:54N 32°53' E 035°00'0 0.0
2018-Feb-16 17:51N 32°53' E 035°00'0 0.0
2018-Feb-16 17:27N 32°53' E 035°00'0 0.0
2018-Feb-16 15:06N 32°53' E 035°01'0 0.0
2018-Feb-16 14:39N 32°53' E 035°01'0 0.0
2018-Feb-16 14:03N 32°53' E 035°00'0 0.3
2018-Feb-16 13:54N 32°53' E 035°00'0 0.0
2018-Feb-16 04:30N 32°53' E 035°00'0 0.0
2018-Feb-16 03:24N 32°53' E 035°00'0 0.0
2018-Feb-15 23:15N 32°53' E 035°00'0 0.0
2018-Feb-15 22:48N 32°53' E 035°00'0 0.0
2018-Feb-15 20:30N 32°53' E 035°00'0 0.0
2018-Feb-15 18:24N 32°53' E 035°00'0 0.1
2018-Feb-15 17:48N 32°53' E 035°00'0 0.0
2018-Feb-15 15:00N 32°53' E 035°00'0 0.1
2018-Feb-15 14:18N 32°53' E 035°00'0 0.0
2018-Feb-15 13:57N 32°53' E 035°00'0 0.0
2018-Feb-15 13:27N 32°53' E 035°00'0 0.0
2018-Feb-15 12:57N 32°53' E 035°00'0 0.0
2018-Feb-15 07:00N 32°53' E 035°00'0 0.0
2018-Feb-15 05:45N 32°53' E 035°00'0 0.1
2018-Feb-15 05:27N 32°53' E 035°00'0 0.1
2018-Feb-15 05:00N 32°53' E 035°00'0 0.0
2018-Feb-15 04:03N 32°53' E 035°00'0 0.1
2018-Feb-15 03:57N 32°53' E 035°00'0 0.0
2018-Feb-15 01:45N 32°53' E 035°00'0 0.0
2018-Feb-14 21:18N 32°53' E 035°00'2 5.6
2018-Feb-14 20:58N 32°53' E 034°58'612.5
2018-Feb-14 20:29N 32°54' E 034°51'613.5
2018-Feb-14 20:00N 32°55' E 034°44'713.9
2018-Feb-14 19:30N 32°56' E 034°35'10 0.2
2018-Feb-12 23:02N 32°56' E 034°47'112.9
2018-Feb-12 22:58N 32°56' E 034°48'611.8
2018-Feb-12 22:30N 32°55' E 034°54'6 0.2
2018-Feb-11 14:07N 32°51' E 035°00'1 4.2
2018-Feb-11 13:55N 32°52' E 034°59'2 1.4
2018-Feb-11 12:26N 32°54' E 035°00'0 0.0
2018-Feb-11 09:38N 32°54' E 035°00'0 0.1
2018-Feb-11 09:13N 32°54' E 035°00'0 0.0
2018-Feb-11 08:58N 32°54' E 035°00'0 0.0
2018-Feb-11 08:23N 32°54' E 035°00'0 0.0
2018-Feb-11 05:55N 32°54' E 035°00'0 0.0
2018-Feb-11 04:43N 32°54' E 035°00'0 0.0
2018-Feb-11 01:56N 32°54' E 035°00'0 0.0
2018-Feb-11 00:38N 32°54' E 035°00'0 0.0
2018-Feb-10 22:56N 32°54' E 035°00'0 0.1
2018-Feb-10 22:27N 32°54' E 035°00'2 4.2
2018-Feb-10 22:00N 32°54' E 034°58'611.6
2018-Feb-10 21:30N 32°54' E 034°51'612.6
2018-Feb-10 21:00N 32°55' E 034°44'713.3
2018-Feb-10 20:29N 32°56' E 034°36'612.7
2018-Feb-10 20:00N 33°01' E 034°32'813.7
2018-Feb-10 19:24N 33°09' E 034°29'613.5
2018-Feb-10 18:59N 33°14' E 034°26'613.4
2018-Feb-10 18:30N 33°20' E 034°24'713.8
2018-Feb-10 18:00N 33°27' E 034°21'1613.7
2018-Feb-10 16:49N 33°42' E 034°14'413.7
2018-Feb-10 16:30N 33°46' E 034°12'1413.5
2018-Feb-10 15:30N 33°59' E 034°06'  
Track history (hours):
 
Tides and Currents Weather Stations Pressure Air Temp Water Temp Dewpoint Dewpoint Depression Visibility Wind Speed Wind Dir Waves Ship Positions

Petrolina Ocean

Last reported at 2018-Feb-19 10:44 UTC. Time now 2018-Feb-21 01:44 UTC.
Position N 32°57' E 034°46'.

Length 113 m; draft 5.6 m.

Type: Tanker. MMSI: 212422000.

Date/timePositionNaut miles runAvg speedWind from/ knotsBaromVisibWave heightAir tempDewpointWater temp
2018-Feb-19 10:44N 32°57' E 034°46'312.0
2018-Feb-19 10:29N 32°57' E 034°49'611.8
2018-Feb-19 09:59N 32°54' E 034°55'611.4
2018-Feb-19 09:30N 32°51' E 035°01'1 0.0
2018-Feb-17 16:08N 32°51' E 034°60'3 0.9
2018-Feb-17 13:18N 32°54' E 035°01'0 0.0
2018-Feb-17 13:00N 32°54' E 035°01'0 0.1
2018-Feb-17 12:30N 32°54' E 035°01'0 0.0
2018-Feb-17 11:54N 32°54' E 035°01'0 0.0
2018-Feb-17 11:30N 32°54' E 035°01'0 0.0
2018-Feb-17 10:54N 32°54' E 035°01'0 0.0
2018-Feb-17 10:30N 32°54' E 035°01'0 0.0
2018-Feb-16 19:57N 32°53' E 035°00'0 0.0
2018-Feb-16 19:21N 32°53' E 035°00'0 0.0
2018-Feb-16 18:54N 32°53' E 035°00'0 0.0
2018-Feb-16 17:51N 32°53' E 035°00'0 0.0
2018-Feb-16 17:27N 32°53' E 035°00'0 0.0
2018-Feb-16 15:06N 32°53' E 035°01'0 0.0
2018-Feb-16 14:39N 32°53' E 035°01'0 0.0
2018-Feb-16 14:03N 32°53' E 035°00'0 0.3
2018-Feb-16 13:54N 32°53' E 035°00'0 0.0
2018-Feb-16 04:30N 32°53' E 035°00'0 0.0
2018-Feb-16 03:24N 32°53' E 035°00'0 0.0
2018-Feb-15 23:15N 32°53' E 035°00'0 0.0
2018-Feb-15 22:48N 32°53' E 035°00'0 0.0
2018-Feb-15 20:30N 32°53' E 035°00'0 0.0
2018-Feb-15 18:24N 32°53' E 035°00'0 0.1
2018-Feb-15 17:48N 32°53' E 035°00'0 0.0
2018-Feb-15 15:00N 32°53' E 035°00'0 0.1
2018-Feb-15 14:18N 32°53' E 035°00'0 0.0
2018-Feb-15 13:57N 32°53' E 035°00'0 0.0
2018-Feb-15 13:27N 32°53' E 035°00'0 0.0
2018-Feb-15 12:57N 32°53' E 035°00'0 0.0
2018-Feb-15 07:00N 32°53' E 035°00'0 0.0
2018-Feb-15 05:45N 32°53' E 035°00'0 0.1
2018-Feb-15 05:27N 32°53' E 035°00'0 0.1
2018-Feb-15 05:00N 32°53' E 035°00'0 0.0
2018-Feb-15 04:03N 32°53' E 035°00'0 0.1
2018-Feb-15 03:57N 32°53' E 035°00'0 0.0
2018-Feb-15 01:45N 32°53' E 035°00'0 0.0
2018-Feb-14 21:18N 32°53' E 035°00'2 5.6
2018-Feb-14 20:58N 32°53' E 034°58'612.5
2018-Feb-14 20:29N 32°54' E 034°51'613.5
2018-Feb-14 20:00N 32°55' E 034°44'713.9
2018-Feb-14 19:30N 32°56' E 034°35'10 0.2
2018-Feb-12 23:02N 32°56' E 034°47'112.9
2018-Feb-12 22:58N 32°56' E 034°48'611.8
2018-Feb-12 22:30N 32°55' E 034°54'6 0.2
2018-Feb-11 14:07N 32°51' E 035°00'1 4.2
2018-Feb-11 13:55N 32°52' E 034°59'2 1.4
2018-Feb-11 12:26N 32°54' E 035°00'0 0.0
2018-Feb-11 09:38N 32°54' E 035°00'0 0.1
2018-Feb-11 09:13N 32°54' E 035°00'0 0.0
2018-Feb-11 08:58N 32°54' E 035°00'0 0.0
2018-Feb-11 08:23N 32°54' E 035°00'0 0.0
2018-Feb-11 05:55N 32°54' E 035°00'0 0.0
2018-Feb-11 04:43N 32°54' E 035°00'0 0.0
2018-Feb-11 01:56N 32°54' E 035°00'0 0.0
2018-Feb-11 00:38N 32°54' E 035°00'0 0.0
2018-Feb-10 22:56N 32°54' E 035°00'0 0.1
2018-Feb-10 22:27N 32°54' E 035°00'2 4.2
2018-Feb-10 22:00N 32°54' E 034°58'611.6
2018-Feb-10 21:30N 32°54' E 034°51'612.6
2018-Feb-10 21:00N 32°55' E 034°44'713.3
2018-Feb-10 20:29N 32°56' E 034°36'612.7
2018-Feb-10 20:00N 33°01' E 034°32'813.7
2018-Feb-10 19:24N 33°09' E 034°29'613.5
2018-Feb-10 18:59N 33°14' E 034°26'613.4
2018-Feb-10 18:30N 33°20' E 034°24'713.8
2018-Feb-10 18:00N 33°27' E 034°21'1613.7
2018-Feb-10 16:49N 33°42' E 034°14'413.7
2018-Feb-10 16:30N 33°46' E 034°12'1413.5
2018-Feb-10 15:30N 33°59' E 034°06'  

Dump ship's entire track history